Time;durP1;ratioP1;P1;durP2;ratioP2;P2;SDS_P1;SDS_P2;PMS_P1;PMS_P2;Temp;Humidity;BMP_temperature;BMP_pressure;BME280_temperature;BME280_humidity;BME280_pressure;Samples;Min_cycle;Max_cycle;Signal;HPM_P1;HPM_P2
2022/11/14 00:00:31;;;;;;;53.67;27.20;;;6.70;99.90;;;;;;5098200;28;20201;-80
2022/11/14 00:03:00;;;;;;;53.43;26.30;;;6.70;99.90;;;;;;5093208;28;20238;-80
2022/11/14 00:05:27;;;;;;;51.77;26.47;;;6.70;99.90;;;;;;5082075;28;20200;-81
2022/11/14 00:07:54;;;;;;;51.50;23.43;;;6.70;99.90;;;;;;5094972;28;20224;-81
2022/11/14 00:10:21;;;;;;;52.17;25.93;;;6.60;99.90;;;;;;5099787;28;20204;-80
2022/11/14 00:12:49;;;;;;;52.17;25.40;;;6.60;99.90;;;;;;5098336;28;20194;-80
2022/11/14 00:15:16;;;;;;;59.30;27.90;;;6.60;99.90;;;;;;5098660;28;20577;-80
2022/11/14 00:17:43;;;;;;;54.87;28.73;;;6.60;99.90;;;;;;5096452;28;20213;-80
2022/11/14 00:20:12;;;;;;;57.00;27.10;;;6.60;99.90;;;;;;5086528;28;20198;-81
2022/11/14 00:22:39;;;;;;;58.43;28.70;;;6.60;99.90;;;;;;5078113;28;20227;-80
2022/11/14 00:25:06;;;;;;;53.40;28.03;;;6.60;99.90;;;;;;5087475;28;20650;-80
2022/11/14 00:27:33;;;;;;;52.03;27.20;;;6.70;99.90;;;;;;5097023;28;20210;-80
2022/11/14 00:30:01;;;;;;;49.80;26.93;;;6.70;99.90;;;;;;5092574;28;20201;-79
2022/11/14 00:32:28;;;;;;;53.93;26.77;;;6.60;99.90;;;;;;5078736;28;20194;-80
2022/11/14 00:34:54;;;;;;;59.30;26.83;;;6.60;99.90;;;;;;5097265;28;20208;-80
2022/11/14 00:37:21;;;;;;;54.97;26.87;;;6.50;99.90;;;;;;5078697;28;20234;-80
2022/11/14 00:39:48;;;;;;;52.47;25.97;;;6.50;99.90;;;;;;5079839;28;20202;-80
2022/11/14 00:42:15;;;;;;;55.50;26.63;;;6.50;99.90;;;;;;5078130;28;20215;-80
2022/11/14 00:44:42;;;;;;;56.97;27.93;;;6.50;99.90;;;;;;5079260;28;20210;-80
2022/11/14 00:47:10;;;;;;;58.90;28.37;;;6.50;99.90;;;;;;5078656;28;20226;-81
2022/11/14 00:49:36;;;;;;;55.13;27.70;;;6.50;99.90;;;;;;5077861;28;20201;-80
2022/11/14 00:52:03;;;;;;;58.23;27.87;;;6.50;99.90;;;;;;5077090;28;20197;-81
2022/11/14 00:54:30;;;;;;;50.40;27.10;;;6.50;99.90;;;;;;5076399;28;20198;-80
2022/11/14 00:56:57;;;;;;;55.60;27.13;;;6.60;99.90;;;;;;5077892;28;20234;-81
2022/11/14 00:59:23;;;;;;;63.77;29.50;;;6.50;99.90;;;;;;5077225;28;20216;-81
2022/11/14 01:01:50;;;;;;;54.73;28.00;;;6.50;99.90;;;;;;5077789;28;20548;-80
2022/11/14 01:04:18;;;;;;;56.57;28.70;;;6.40;99.90;;;;;;5095918;28;20202;-80
2022/11/14 01:06:45;;;;;;;59.53;29.13;;;6.40;99.90;;;;;;5081495;28;20589;-80
2022/11/14 01:09:12;;;;;;;58.13;29.53;;;6.50;99.90;;;;;;5093806;28;20205;-80
2022/11/14 01:11:39;;;;;;;59.40;29.70;;;6.40;99.90;;;;;;5077165;28;20202;-80
2022/11/14 01:14:06;;;;;;;60.30;30.10;;;6.40;99.90;;;;;;5081305;28;20209;-80
2022/11/14 01:16:34;;;;;;;55.13;28.67;;;6.30;99.90;;;;;;5119663;28;20200;-80
2022/11/14 01:19:01;;;;;;;63.53;33.27;;;6.30;99.90;;;;;;5118973;28;20236;-80
2022/11/14 01:21:29;;;;;;;60.10;30.67;;;6.30;99.90;;;;;;5117437;28;20208;-80
2022/11/14 01:23:56;;;;;;;57.67;30.37;;;6.30;99.90;;;;;;5096509;28;20221;-80
2022/11/14 01:26:23;;;;;;;56.73;28.27;;;6.30;99.90;;;;;;5090522;28;20210;-81
2022/11/14 01:28:50;;;;;;;56.60;33.00;;;6.30;99.90;;;;;;5085341;28;20199;-80
2022/11/14 01:31:19;;;;;;;60.17;29.83;;;6.30;99.90;;;;;;5097673;28;20206;-80
2022/11/14 01:33:49;;;;;;;55.60;27.83;;;6.30;99.90;;;;;;5094055;28;20189;-80
2022/11/14 01:36:16;;;;;;;55.67;32.20;;;6.20;99.90;;;;;;5088461;28;20199;-80
2022/11/14 01:38:44;;;;;;;56.33;29.57;;;6.20;99.90;;;;;;5091173;28;20217;-83
2022/11/14 01:41:14;;;;;;;54.10;27.60;;;6.30;99.90;;;;;;5096606;28;20204;-82
2022/11/14 01:43:41;;;;;;;54.77;28.17;;;6.20;99.90;;;;;;5093770;28;20224;-82
2022/11/14 01:46:12;;;;;;;55.57;28.03;;;6.20;99.90;;;;;;5076981;28;20209;-82
2022/11/14 01:48:42;;;;;;;59.77;29.57;;;6.20;99.90;;;;;;5075894;28;20596;-83
2022/11/14 01:51:18;;;;;;;56.87;28.20;;;6.20;99.90;;;;;;5077431;28;20198;-82
2022/11/14 01:53:48;;;;;;;57.13;28.77;;;6.10;99.90;;;;;;5077363;28;20197;-82
2022/11/14 01:56:18;;;;;;;58.97;30.03;;;6.10;99.90;;;;;;5098601;28;20278;-83
2022/11/14 01:58:49;;;;;;;56.43;29.70;;;6.10;99.90;;;;;;5084342;28;20218;-82
2022/11/14 02:01:16;;;;;;;55.50;32.53;;;6.00;99.90;;;;;;5080515;28;20288;-82
2022/11/14 02:03:46;;;;;;;57.10;28.33;;;6.00;99.90;;;;;;5095323;28;20244;-82
2022/11/14 02:06:16;;;;;;;62.50;30.47;;;5.90;99.90;;;;;;5096601;28;20749;-82
2022/11/14 02:08:44;;;;;;;55.50;32.73;;;5.90;99.90;;;;;;5082899;28;20222;-82
2022/11/14 02:11:13;;;;;;;54.60;27.83;;;5.90;99.90;;;;;;5077745;28;20666;-82
2022/11/14 02:13:40;;;;;;;58.23;29.03;;;5.80;99.90;;;;;;5076996;28;20605;-82
2022/11/14 02:16:07;;;;;;;54.30;27.80;;;5.80;99.90;;;;;;5094499;28;20342;-82
2022/11/14 02:18:34;;;;;;;52.77;26.93;;;5.80;99.90;;;;;;5098499;28;20221;-82
2022/11/14 02:21:02;;;;;;;55.97;33.10;;;5.80;99.90;;;;;;5081822;28;20702;-82
2022/11/14 02:23:30;;;;;;;57.37;26.13;;;5.70;99.90;;;;;;5088850;28;20218;-82
2022/11/14 02:25:58;;;;;;;56.47;27.77;;;5.70;99.90;;;;;;5093446;28;20206;-82
2022/11/14 02:28:25;;;;;;;54.50;28.07;;;5.60;99.90;;;;;;5098202;28;20228;-82
2022/11/14 02:30:52;;;;;;;58.63;28.37;;;5.70;99.90;;;;;;5093745;28;20202;-82
2022/11/14 02:33:19;;;;;;;54.20;29.33;;;5.60;99.90;;;;;;5085399;28;20272;-82
2022/11/14 02:35:46;;;;;;;51.33;26.60;;;5.80;99.90;;;;;;5091996;28;20556;-82
2022/11/14 02:38:14;;;;;;;54.50;28.00;;;5.60;99.90;;;;;;5080457;28;20900;-82
2022/11/14 02:40:41;;;;;;;58.20;28.40;;;5.60;99.90;;;;;;5076980;28;20214;-82
2022/11/14 02:43:07;;;;;;;57.47;26.87;;;5.60;99.90;;;;;;5074195;28;20222;-82
2022/11/14 02:45:34;;;;;;;60.03;29.20;;;5.60;99.90;;;;;;5089875;28;20198;-82
2022/11/14 02:48:01;;;;;;;56.43;27.83;;;5.60;99.90;;;;;;5095006;28;20213;-82
2022/11/14 02:50:28;;;;;;;58.27;28.10;;;5.60;99.90;;;;;;5096501;28;20197;-82
2022/11/14 02:52:55;;;;;;;53.53;27.57;;;5.60;99.90;;;;;;5095378;28;20253;-82
2022/11/14 02:55:23;;;;;;;51.83;24.70;;;5.60;99.90;;;;;;5090481;28;20368;-82
2022/11/14 02:57:50;;;;;;;52.53;24.53;;;5.60;99.90;;;;;;5077134;28;20226;-82
2022/11/14 03:00:18;;;;;;;58.50;27.90;;;5.60;99.90;;;;;;5086838;28;20202;-82
2022/11/14 03:02:45;;;;;;;53.50;26.83;;;5.50;99.90;;;;;;5103287;28;20247;-82
2022/11/14 03:05:11;;;;;;;59.10;29.03;;;5.50;99.90;;;;;;5096774;28;20205;-81
2022/11/14 03:07:38;;;;;;;50.80;26.33;;;5.50;99.90;;;;;;5087862;28;20221;-81
2022/11/14 03:10:06;;;;;;;54.67;26.00;;;5.50;99.90;;;;;;5077423;28;20202;-82
2022/11/14 03:12:35;;;;;;;51.00;27.13;;;5.40;99.90;;;;;;5077211;28;20199;-82
2022/11/14 03:15:01;;;;;;;57.23;31.33;;;5.50;99.90;;;;;;5093939;28;20289;-82
2022/11/14 03:17:31;;;;;;;52.73;32.60;;;5.50;99.90;;;;;;5086382;28;20564;-82
2022/11/14 03:19:58;;;;;;;55.40;29.20;;;5.40;99.90;;;;;;5091620;28;20194;-82
2022/11/14 03:22:25;;;;;;;57.30;28.67;;;5.40;99.90;;;;;;5080531;28;20563;-82
2022/11/14 03:24:52;;;;;;;54.57;26.37;;;5.50;99.90;;;;;;5100589;28;20673;-82
2022/11/14 03:27:19;;;;;;;54.17;31.10;;;5.40;99.90;;;;;;5100746;28;20226;-82
2022/11/14 03:29:47;;;;;;;55.77;26.90;;;5.40;99.90;;;;;;5100206;28;20204;-82
2022/11/14 03:32:14;;;;;;;50.00;25.37;;;5.40;99.90;;;;;;5082873;28;20205;-83
2022/11/14 03:34:41;;;;;;;50.97;26.43;;;5.40;99.90;;;;;;5095125;28;20197;-82
2022/11/14 03:37:09;;;;;;;50.03;26.90;;;5.40;99.90;;;;;;5082567;28;20218;-82
2022/11/14 03:39:35;;;;;;;55.90;32.97;;;5.40;99.90;;;;;;5083651;28;20261;-82
2022/11/14 03:42:02;;;;;;;58.17;28.40;;;5.40;99.90;;;;;;5080144;28;20200;-82
2022/11/14 03:44:29;;;;;;;57.13;27.00;;;5.30;99.90;;;;;;5085360;28;20222;-82
2022/11/14 03:46:57;;;;;;;55.70;31.63;;;5.40;99.90;;;;;;5099486;28;20240;-82
2022/11/14 03:49:24;;;;;;;53.60;31.70;;;5.40;99.90;;;;;;5081923;28;20202;-82
2022/11/14 03:51:51;;;;;;;53.57;27.83;;;5.40;99.90;;;;;;5093292;28;20198;-82
2022/11/14 03:54:18;;;;;;;52.13;25.67;;;5.40;99.90;;;;;;5100393;28;20729;-82
2022/11/14 03:56:44;;;;;;;56.20;26.33;;;5.40;99.90;;;;;;5086374;28;20629;-81
2022/11/14 03:59:11;;;;;;;46.77;25.43;;;5.40;99.90;;;;;;5080020;28;20826;-81
2022/11/14 04:01:38;;;;;;;47.67;24.97;;;5.40;99.90;;;;;;5092475;28;20285;-82
2022/11/14 04:04:06;;;;;;;50.50;25.53;;;5.40;99.90;;;;;;5082953;28;20218;-81
2022/11/14 04:06:33;;;;;;;45.60;22.90;;;5.40;99.90;;;;;;5078325;28;20202;-82
2022/11/14 04:09:00;;;;;;;46.63;21.67;;;5.30;99.90;;;;;;5093799;28;20197;-82
2022/11/14 04:11:26;;;;;;;51.17;29.93;;;5.20;99.90;;;;;;5097210;28;20202;-82
2022/11/14 04:13:53;;;;;;;47.13;28.40;;;5.20;99.90;;;;;;5095570;28;20563;-82
2022/11/14 04:16:20;;;;;;;45.47;24.17;;;5.30;99.90;;;;;;5097856;28;20201;-84
2022/11/14 04:18:47;;;;;;;46.93;22.27;;;5.20;99.90;;;;;;5097616;28;20701;-82
2022/11/14 04:21:15;;;;;;;47.93;24.13;;;5.10;99.90;;;;;;5097491;28;20197;-82
2022/11/14 04:23:42;;;;;;;48.23;27.83;;;5.10;99.90;;;;;;5097062;28;20224;-82
2022/11/14 04:26:09;;;;;;;57.10;29.80;;;5.10;99.90;;;;;;5096993;28;20218;-82
2022/11/14 04:28:35;;;;;;;50.77;26.33;;;5.20;99.90;;;;;;5097431;28;20225;-84
2022/11/14 04:31:02;;;;;;;48.70;26.03;;;5.30;99.90;;;;;;5098036;28;20208;-83
2022/11/14 04:33:29;;;;;;;47.93;25.93;;;5.10;99.90;;;;;;5098866;28;20207;-83
2022/11/14 04:35:56;;;;;;;46.73;24.40;;;5.20;99.90;;;;;;5099365;28;20204;-83
2022/11/14 04:38:24;;;;;;;44.53;25.00;;;5.10;99.90;;;;;;5097503;28;20217;-83
2022/11/14 04:40:51;;;;;;;48.50;27.23;;;5.30;99.90;;;;;;5099482;28;20203;-83
2022/11/14 04:43:19;;;;;;;44.63;26.50;;;5.20;99.90;;;;;;5109213;28;20292;-83
2022/11/14 04:45:46;;;;;;;44.53;24.20;;;5.30;99.90;;;;;;5111638;28;20197;-83
2022/11/14 04:48:13;;;;;;;45.40;23.30;;;5.10;99.90;;;;;;5097781;28;20724;-83
2022/11/14 04:50:40;;;;;;;41.07;21.53;;;5.20;99.90;;;;;;5097465;28;20209;-83
2022/11/14 04:53:07;;;;;;;47.77;23.53;;;5.20;99.90;;;;;;5098414;28;20209;-83
2022/11/14 04:55:35;;;;;;;47.60;24.00;;;5.20;99.90;;;;;;5093810;28;20206;-83
2022/11/14 04:58:02;;;;;;;40.50;22.27;;;5.30;99.90;;;;;;5077456;28;20323;-83
2022/11/14 05:00:28;;;;;;;43.97;23.53;;;5.10;99.90;;;;;;5076435;28;20303;-83
2022/11/14 05:02:55;;;;;;;48.63;25.17;;;5.20;99.90;;;;;;5077482;28;20205;-83
2022/11/14 05:05:22;;;;;;;48.40;26.77;;;5.20;99.90;;;;;;5076306;28;20216;-83
2022/11/14 05:07:49;;;;;;;52.67;25.67;;;5.20;99.90;;;;;;5078410;28;20233;-83
2022/11/14 05:10:16;;;;;;;49.67;24.43;;;5.20;99.90;;;;;;5096858;28;20197;-83
2022/11/14 05:12:44;;;;;;;45.03;24.23;;;5.30;99.90;;;;;;5098164;28;20200;-83
2022/11/14 05:15:11;;;;;;;43.40;22.97;;;5.30;99.90;;;;;;5097925;28;20201;-83
2022/11/14 05:17:37;;;;;;;41.60;25.30;;;5.20;99.90;;;;;;5097904;28;20232;-83
2022/11/14 05:20:05;;;;;;;46.73;27.50;;;5.20;99.90;;;;;;5097491;28;20687;-83
2022/11/14 05:22:32;;;;;;;43.53;25.37;;;5.20;99.90;;;;;;5079765;28;20216;-83
2022/11/14 05:24:59;;;;;;;45.13;23.67;;;5.10;99.90;;;;;;5097499;28;20711;-83
2022/11/14 05:27:25;;;;;;;42.37;22.30;;;5.10;99.90;;;;;;5098441;28;20224;-82
2022/11/14 05:29:54;;;;;;;40.17;20.73;;;5.10;99.90;;;;;;5099933;28;20713;-83
2022/11/14 05:32:21;;;;;;;44.77;21.93;;;5.10;99.90;;;;;;5097055;28;20266;-83
2022/11/14 05:34:48;;;;;;;45.10;26.13;;;5.00;99.90;;;;;;5100092;28;20272;-83
2022/11/14 05:37:15;;;;;;;48.23;25.60;;;5.00;99.90;;;;;;5099005;28;20225;-83
2022/11/14 05:39:41;;;;;;;46.40;22.77;;;5.00;99.90;;;;;;5095232;28;20205;-82
2022/11/14 05:42:08;;;;;;;44.13;22.10;;;5.10;99.90;;;;;;5096731;28;20201;-83
2022/11/14 05:44:35;;;;;;;43.90;22.27;;;5.10;99.90;;;;;;5097235;28;20221;-83
2022/11/14 05:47:03;;;;;;;42.50;22.43;;;5.10;99.90;;;;;;5097699;28;20317;-82
2022/11/14 05:49:30;;;;;;;45.30;26.37;;;5.10;99.90;;;;;;5096578;28;20205;-83
2022/11/14 05:51:57;;;;;;;43.67;25.57;;;5.10;99.90;;;;;;5096840;28;20202;-83
2022/11/14 05:54:23;;;;;;;49.37;24.23;;;5.20;99.90;;;;;;5096065;28;20622;-83
2022/11/14 05:56:50;;;;;;;42.00;21.43;;;5.20;99.90;;;;;;5097606;28;20217;-83
2022/11/14 05:59:17;;;;;;;46.07;22.60;;;5.20;99.90;;;;;;5096218;28;20201;-83
2022/11/14 06:01:44;;;;;;;40.40;22.40;;;5.10;99.90;;;;;;5081154;28;20293;-83
2022/11/14 06:04:13;;;;;;;44.60;24.00;;;5.10;99.90;;;;;;5077131;28;20218;-83
2022/11/14 06:06:41;;;;;;;45.20;20.80;;;5.10;99.90;;;;;;5077591;28;20229;-83
2022/11/14 06:09:08;;;;;;;40.77;19.97;;;5.10;99.90;;;;;;5078793;28;20736;-83
2022/11/14 06:11:35;;;;;;;50.07;24.27;;;5.00;99.90;;;;;;5076983;28;20210;-83
2022/11/14 06:14:01;;;;;;;40.50;20.63;;;5.00;99.90;;;;;;5076041;28;20202;-83
2022/11/14 06:16:28;;;;;;;41.60;21.30;;;5.10;99.90;;;;;;5078443;28;20213;-83
2022/11/14 06:18:56;;;;;;;43.67;20.83;;;5.10;99.90;;;;;;5097781;28;20206;-83
2022/11/14 06:21:25;;;;;;;41.43;23.87;;;5.10;99.90;;;;;;5094962;28;20202;-83
2022/11/14 06:23:53;;;;;;;41.70;21.73;;;5.00;99.90;;;;;;5076897;28;20221;-83
2022/11/14 06:26:22;;;;;;;44.00;22.80;;;5.10;99.90;;;;;;5077931;28;20214;-83
2022/11/14 06:28:49;;;;;;;43.53;20.67;;;5.00;99.90;;;;;;5092145;28;20221;-83
2022/11/14 06:31:17;;;;;;;41.53;20.20;;;5.00;99.90;;;;;;5096523;28;20198;-83
2022/11/14 06:33:44;;;;;;;43.17;22.10;;;5.00;99.90;;;;;;5088388;28;20217;-83
2022/11/14 06:36:11;;;;;;;43.67;21.70;;;5.10;99.90;;;;;;5095553;28;20197;-82
2022/11/14 06:38:41;;;;;;;40.73;20.63;;;5.00;99.90;;;;;;5095641;28;20225;-83
2022/11/14 06:41:10;;;;;;;41.63;23.70;;;5.10;99.90;;;;;;5097723;28;20208;-83
2022/11/14 06:43:38;;;;;;;40.57;19.60;;;5.10;99.90;;;;;;5093633;28;20234;-83
2022/11/14 06:46:07;;;;;;;40.37;21.00;;;5.10;99.90;;;;;;5078018;28;20198;-83
2022/11/14 06:48:34;;;;;;;44.97;22.50;;;5.10;99.90;;;;;;5077696;28;20226;-83
2022/11/14 06:51:02;;;;;;;45.13;22.23;;;5.10;99.90;;;;;;5079701;28;20293;-83
2022/11/14 06:53:31;;;;;;;42.80;22.17;;;5.10;99.90;;;;;;5088465;28;20220;-83
2022/11/14 06:56:01;;;;;;;41.70;21.63;;;5.10;99.90;;;;;;5098126;28;20211;-83
2022/11/14 06:58:29;;;;;;;44.23;25.20;;;5.10;99.90;;;;;;5095040;28;20226;-83
2022/11/14 07:00:57;;;;;;;40.87;20.97;;;5.10;99.90;;;;;;5078430;28;20265;-83
2022/11/14 07:03:24;;;;;;;41.80;22.80;;;5.20;99.90;;;;;;5077365;28;20664;-83
2022/11/14 07:05:50;;;;;;;47.40;25.73;;;5.20;99.90;;;;;;5077038;28;20225;-83
2022/11/14 07:08:17;;;;;;;43.17;22.17;;;5.30;99.90;;;;;;5089286;28;20224;-83
2022/11/14 07:10:44;;;;;;;44.23;21.67;;;5.30;99.90;;;;;;5096688;28;20198;-82
2022/11/14 07:13:12;;;;;;;42.43;21.53;;;5.20;99.90;;;;;;5099212;28;20208;-83
2022/11/14 07:15:39;;;;;;;40.63;21.23;;;5.30;99.90;;;;;;5102726;28;20205;-83
2022/11/14 07:18:06;;;;;;;40.07;21.57;;;5.30;99.90;;;;;;5102189;28;20731;-83
2022/11/14 07:20:33;;;;;;;42.93;22.07;;;5.30;99.90;;;;;;5102464;28;20228;-83
2022/11/14 07:22:59;;;;;;;37.83;20.43;;;5.30;99.90;;;;;;5101647;28;20229;-83
2022/11/14 07:25:26;;;;;;;42.33;20.70;;;5.30;99.90;;;;;;5100534;28;20616;-83
2022/11/14 07:27:53;;;;;;;42.53;21.77;;;5.40;99.90;;;;;;5101104;28;20627;-83
2022/11/14 07:30:21;;;;;;;41.37;21.83;;;5.40;99.90;;;;;;5102051;28;20220;-83
2022/11/14 07:32:55;;;;;;;41.63;21.13;;;5.40;99.90;;;;;;5083856;28;20270;-83
2022/11/14 07:35:21;;;;;;;38.80;20.70;;;5.20;99.90;;;;;;5079730;28;20229;-83
2022/11/14 07:37:48;;;;;;;39.73;24.37;;;5.40;99.90;;;;;;5094075;28;20233;-83
2022/11/14 07:40:16;;;;;;;44.30;26.03;;;5.30;99.90;;;;;;5084721;28;20297;-83
2022/11/14 07:42:43;;;;;;;41.60;24.83;;;5.30;99.90;;;;;;5080160;28;20285;-83
2022/11/14 07:45:11;;;;;;;44.17;22.00;;;5.40;99.90;;;;;;5090895;28;20229;-83
2022/11/14 07:47:39;;;;;;;44.87;22.53;;;5.40;99.90;;;;;;5095716;28;20933;-83
2022/11/14 07:50:07;;;;;;;43.73;21.67;;;5.30;99.90;;;;;;5084681;28;20240;-83
2022/11/14 07:52:33;;;;;;;45.13;22.37;;;5.40;99.90;;;;;;5083865;28;20214;-83
2022/11/14 07:55:00;;;;;;;43.33;22.83;;;5.40;99.90;;;;;;5103099;28;20575;-83
2022/11/14 07:57:27;;;;;;;41.97;21.23;;;5.40;99.90;;;;;;5099363;28;20312;-83
2022/11/14 07:59:54;;;;;;;44.33;21.90;;;5.50;99.90;;;;;;5085706;28;20290;-82
2022/11/14 08:02:21;;;;;;;42.87;21.53;;;5.50;99.90;;;;;;5081595;28;20226;-83
2022/11/14 08:04:49;;;;;;;42.97;24.37;;;5.40;99.90;;;;;;5080775;28;20220;-83
2022/11/14 08:07:16;;;;;;;41.67;21.43;;;5.50;99.90;;;;;;5084884;28;20697;-83
2022/11/14 08:09:42;;;;;;;38.67;20.10;;;5.60;99.90;;;;;;5106138;28;20288;-83
2022/11/14 08:12:09;;;;;;;40.93;21.40;;;5.60;99.90;;;;;;5104529;28;20207;-83
2022/11/14 08:14:36;;;;;;;40.80;21.53;;;5.50;99.90;;;;;;5104466;28;20288;-83
2022/11/14 08:17:03;;;;;;;42.37;21.23;;;5.50;99.90;;;;;;5103323;28;20264;-83
2022/11/14 08:19:29;;;;;;;40.87;21.43;;;5.60;99.90;;;;;;5104618;28;20313;-83
2022/11/14 08:21:57;;;;;;;39.67;20.73;;;5.60;99.90;;;;;;5101821;28;20209;-83
2022/11/14 08:24:27;;;;;;;40.40;21.33;;;5.60;99.90;;;;;;5099323;28;20229;-83
2022/11/14 08:26:53;;;;;;;41.50;21.53;;;5.60;99.90;;;;;;5099860;28;20233;-83
2022/11/14 08:29:20;;;;;;;40.80;20.43;;;5.60;99.90;;;;;;5105172;28;20201;-83
2022/11/14 08:31:47;;;;;;;39.37;20.50;;;5.80;99.90;;;;;;5104417;28;20228;-83
2022/11/14 08:34:14;;;;;;;41.37;24.77;;;5.50;99.90;;;;;;5106319;28;20276;-83
2022/11/14 08:36:41;;;;;;;39.63;20.87;;;5.60;99.90;;;;;;5104149;28;20762;-83
2022/11/14 08:39:09;;;;;;;40.97;21.73;;;5.60;99.90;;;;;;5085705;28;20244;-83
2022/11/14 08:41:35;;;;;;;40.50;21.30;;;5.60;99.90;;;;;;5081822;28;20760;-82
2022/11/14 08:44:02;;;;;;;40.60;21.50;;;5.60;99.90;;;;;;5076490;28;20209;-83
2022/11/14 08:46:29;;;;;;;41.77;21.47;;;5.60;99.90;;;;;;5086611;28;20205;-83
2022/11/14 08:48:56;;;;;;;40.93;21.00;;;5.60;99.90;;;;;;5099545;28;20208;-83
2022/11/14 08:51:23;;;;;;;42.27;20.80;;;5.60;99.90;;;;;;5097794;28;20194;-83
2022/11/14 08:53:51;;;;;;;41.10;20.53;;;5.60;99.90;;;;;;5100474;28;20201;-83
2022/11/14 08:56:19;;;;;;;43.50;22.10;;;5.60;99.90;;;;;;5099496;28;20775;-83
2022/11/14 08:58:46;;;;;;;44.40;22.53;;;5.60;99.90;;;;;;5099099;28;20232;-83
2022/11/14 09:01:13;;;;;;;42.63;22.13;;;5.70;99.90;;;;;;5099092;28;20209;-82
2022/11/14 09:03:40;;;;;;;43.30;22.80;;;5.70;99.90;;;;;;5099309;28;20216;-83
2022/11/14 09:06:10;;;;;;;42.77;22.67;;;5.70;99.90;;;;;;5098603;28;20312;-83
2022/11/14 09:08:37;;;;;;;39.23;20.93;;;5.90;99.90;;;;;;5099586;28;20218;-83
2022/11/14 09:11:05;;;;;;;38.90;21.10;;;6.00;99.90;;;;;;5100195;28;20588;-83
2022/11/14 09:13:34;;;;;;;38.07;20.37;;;5.90;99.90;;;;;;5099874;28;20696;-83
2022/11/14 09:16:01;;;;;;;39.63;20.43;;;5.80;99.90;;;;;;5099825;28;20269;-83
2022/11/14 09:18:29;;;;;;;39.30;23.70;;;5.90;99.90;;;;;;5098585;28;20228;-83
2022/11/14 09:21:00;;;;;;;40.27;22.37;;;5.90;99.90;;;;;;5098708;28;20208;-83
2022/11/14 09:23:26;;;;;;;38.33;20.73;;;6.00;99.90;;;;;;5098131;28;20218;-83
2022/11/14 09:25:55;;;;;;;39.87;20.90;;;5.90;99.90;;;;;;5098698;28;20221;-83
2022/11/14 09:28:22;;;;;;;39.90;20.90;;;6.10;99.90;;;;;;5098598;28;20221;-82
2022/11/14 09:30:50;;;;;;;42.07;20.90;;;6.00;99.90;;;;;;5100029;28;20273;-82
2022/11/14 09:33:17;;;;;;;43.60;23.37;;;5.90;99.90;;;;;;5098151;28;20201;-82
2022/11/14 09:35:44;;;;;;;41.50;20.80;;;5.90;99.90;;;;;;5100582;28;20206;-83
2022/11/14 09:38:11;;;;;;;42.60;20.27;;;5.90;99.90;;;;;;5100019;28;20657;-83
2022/11/14 09:40:51;;;;;;;40.40;22.70;;;6.00;99.90;;;;;;5099858;28;20235;-83
2022/11/14 09:43:47;;;;;;;40.47;20.30;;;6.00;99.90;;;;;;5099526;28;20190;-83
2022/11/14 09:46:21;;;;;;;39.83;20.30;;;5.80;99.90;;;;;;5098947;28;20223;-83
2022/11/14 09:48:49;;;;;;;41.97;21.03;;;6.10;99.90;;;;;;5100149;28;20221;-83
2022/11/14 09:51:19;;;;;;;40.33;24.73;;;6.00;99.90;;;;;;5098993;28;20209;-83
2022/11/14 09:53:51;;;;;;;37.73;22.23;;;6.20;99.90;;;;;;5098258;28;20206;-83
2022/11/14 09:56:24;;;;;;;37.63;21.57;;;6.10;99.90;;;;;;5099689;28;20219;-83
2022/11/14 09:58:51;;;;;;;40.77;20.43;;;6.20;99.90;;;;;;5098959;28;20647;-83
2022/11/14 10:01:30;;;;;;;40.77;21.57;;;6.20;99.90;;;;;;5099096;28;20228;-83
2022/11/14 10:04:09;;;;;;;40.60;20.43;;;6.10;99.90;;;;;;5100087;28;20201;-83
2022/11/14 10:06:47;;;;;;;39.53;21.53;;;6.10;99.90;;;;;;5103299;28;20206;-83
2022/11/14 10:09:39;;;;;;;38.07;21.40;;;6.40;99.90;;;;;;5103079;28;20563;-83
2022/11/14 10:12:14;;;;;;;39.17;20.40;;;6.50;99.90;;;;;;5102541;28;20263;-83
2022/11/14 10:14:59;;;;;;;37.57;20.33;;;6.50;99.90;;;;;;5104951;28;20284;-83
2022/11/14 10:17:50;;;;;;;41.17;21.93;;;6.40;99.90;;;;;;5103315;28;20226;-83
2022/11/14 10:20:23;;;;;;;38.20;20.33;;;6.40;99.90;;;;;;5102367;28;20197;-83
2022/11/14 10:23:03;;;;;;;37.20;20.83;;;6.50;99.90;;;;;;5102543;28;20201;-83
2022/11/14 10:25:38;;;;;;;38.30;20.97;;;6.50;99.90;;;;;;5102230;28;20229;-83
2022/11/14 10:28:31;;;;;;;36.30;22.03;;;6.50;99.90;;;;;;5103488;28;20221;-83
2022/11/14 10:31:07;;;;;;;42.23;21.03;;;6.30;99.90;;;;;;5104343;28;20224;-83
2022/11/14 10:33:47;;;;;;;39.73;20.27;;;6.30;99.90;;;;;;5104332;28;20236;-83
2022/11/14 10:36:22;;;;;;;40.47;23.87;;;6.30;99.90;;;;;;5103803;28;20197;-83
2022/11/14 10:38:56;;;;;;;40.67;20.97;;;6.40;99.90;;;;;;5098944;28;20217;-83
2022/11/14 10:41:25;;;;;;;39.10;21.00;;;6.40;99.90;;;;;;5111416;28;20281;-83
2022/11/14 10:43:52;;;;;;;40.17;21.97;;;6.60;99.90;;;;;;5102523;28;20285;-83
2022/11/14 10:46:23;;;;;;;36.43;19.73;;;6.50;99.90;;;;;;5093640;28;20745;-83
2022/11/14 10:48:51;;;;;;;38.70;20.57;;;6.40;99.90;;;;;;5100455;28;20760;-84
2022/11/14 10:51:22;;;;;;;35.80;19.97;;;6.50;99.90;;;;;;5101181;28;20236;-83
2022/11/14 10:53:54;;;;;;;35.67;19.17;;;6.50;99.90;;;;;;5102611;28;20948;-83
2022/11/14 10:56:21;;;;;;;35.10;19.50;;;6.60;99.90;;;;;;5102959;28;20233;-83
2022/11/14 10:58:47;;;;;;;35.80;18.37;;;6.40;99.90;;;;;;5103961;28;20304;-83
2022/11/14 11:01:35;;;;;;;37.90;20.47;;;6.40;99.90;;;;;;5086291;28;20269;-84
2022/11/14 11:04:21;;;;;;;36.43;20.50;;;6.60;99.90;;;;;;5101698;28;20252;-84
2022/11/14 11:06:49;;;;;;;33.10;19.37;;;6.80;99.90;;;;;;5095846;28;20231;-83
2022/11/14 11:12:06;;;;;;;34.53;19.20;;;6.90;99.90;;;;;;5090016;28;20240;-83
2022/11/14 11:14:34;;;;;;;34.00;19.33;;;6.90;99.90;;;;;;5077919;28;20269;-83
2022/11/14 11:17:19;;;;;;;38.23;19.90;;;6.90;99.90;;;;;;5082470;28;20721;-83
2022/11/14 11:19:48;;;;;;;35.40;18.87;;;6.80;99.90;;;;;;5083484;28;20629;-83
2022/11/14 11:22:35;;;;;;;33.57;17.97;;;6.80;99.90;;;;;;5081337;28;20651;-83
2022/11/14 11:25:01;;;;;;;35.23;18.47;;;6.70;99.90;;;;;;5083802;28;20246;-82
2022/11/14 11:27:30;;;;;;;38.57;20.00;;;6.90;99.90;;;;;;5083668;28;20286;-83
2022/11/14 11:30:19;;;;;;;34.47;19.67;;;6.90;99.90;;;;;;5081472;28;20213;-82
2022/11/14 11:32:46;;;;;;;36.33;19.47;;;7.00;99.90;;;;;;5082854;28;20206;-83
2022/11/14 11:35:16;;;;;;;33.67;18.07;;;7.10;99.90;;;;;;5082794;28;20213;-83
2022/11/14 11:37:53;;;;;;;33.23;18.90;;;7.00;99.90;;;;;;5084251;28;20241;-83
2022/11/14 11:40:23;;;;;;;35.43;18.73;;;7.10;99.90;;;;;;5086426;28;20220;-83
2022/11/14 11:42:57;;;;;;;35.47;17.97;;;7.20;99.90;;;;;;5086162;28;20234;-83
2022/11/14 11:45:25;;;;;;;32.03;18.23;;;7.30;99.90;;;;;;5086452;28;20206;-82
2022/11/14 11:47:57;;;;;;;30.43;17.30;;;7.70;99.90;;;;;;5086619;28;20357;-82
2022/11/14 11:50:25;;;;;;;32.83;17.63;;;8.70;99.90;;;;;;5081235;28;20196;-83
2022/11/14 11:53:02;;;;;;;32.23;18.17;;;8.70;99.90;;;;;;5079889;28;20229;-83
2022/11/14 11:55:33;;;;;;;30.63;16.43;;;8.90;99.90;;;;;;5080704;28;20205;-82
2022/11/14 11:58:05;;;;;;;30.83;16.97;;;8.80;99.90;;;;;;5080310;28;20248;-83
2022/11/14 12:00:32;;;;;;;29.13;17.13;;;9.10;99.90;;;;;;5080214;28;20241;-83
2022/11/14 12:02:59;;;;;;;29.00;15.47;;;9.00;99.90;;;;;;5079982;28;20206;-83
2022/11/14 12:05:37;;;;;;;30.70;16.57;;;9.10;99.90;;;;;;5080128;28;20220;-83
2022/11/14 12:08:07;;;;;;;30.87;17.23;;;8.80;99.90;;;;;;5080258;28;20226;-83
2022/11/14 12:10:38;;;;;;;28.97;16.17;;;8.10;99.90;;;;;;5081530;28;20234;-83
2022/11/14 12:13:26;;;;;;;30.23;16.93;;;8.20;99.90;;;;;;5080729;28;20285;-83
2022/11/14 12:16:04;;;;;;;30.47;16.57;;;8.60;99.90;;;;;;5081149;28;20266;-83
2022/11/14 12:18:48;;;;;;;31.10;17.13;;;8.20;99.90;;;;;;5080162;28;20312;-83
2022/11/14 12:21:30;;;;;;;31.57;18.53;;;8.30;99.90;;;;;;5079713;28;20198;-83
2022/11/14 12:24:24;;;;;;;31.63;18.10;;;8.40;99.90;;;;;;5082819;28;20848;-83
2022/11/14 12:27:12;;;;;;;31.20;17.00;;;8.40;99.90;;;;;;5079251;28;20230;-83
2022/11/14 12:30:04;;;;;;;34.53;17.87;;;8.50;99.90;;;;;;5079120;28;20273;-83
2022/11/14 12:32:34;;;;;;;29.47;17.37;;;8.70;99.90;;;;;;5079053;28;20265;-83
2022/11/14 12:35:05;;;;;;;31.77;18.73;;;8.50;99.90;;;;;;5078197;28;20646;-83
2022/11/14 12:37:35;;;;;;;30.70;17.57;;;8.10;99.90;;;;;;5079854;28;20229;-83
2022/11/14 12:40:07;;;;;;;30.47;17.37;;;7.90;99.90;;;;;;5079597;28;20209;-83
2022/11/14 12:42:34;;;;;;;30.23;16.53;;;7.90;99.90;;;;;;5080078;28;20663;-83
2022/11/14 12:45:01;;;;;;;35.00;19.13;;;7.90;99.90;;;;;;5081107;28;20224;-82
2022/11/14 12:47:29;;;;;;;31.00;18.53;;;8.00;99.90;;;;;;5080130;28;20254;-83